sensor_id;sensor_type;location;lat;lon;timestamp;pressure;altitude;pressure_sealevel;temperature;humidity
27643;BME280;15053;48.618;10.024;2023-04-07T00:00:47;94289.97;;;6.76;64.45
27643;BME280;15053;48.618;10.024;2023-04-07T00:03:13;94290.78;;;6.67;65.19
27643;BME280;15053;48.618;10.024;2023-04-07T00:05:40;94295.41;;;6.60;66.40
27643;BME280;15053;48.618;10.024;2023-04-07T00:08:06;94286.38;;;6.57;67.44
27643;BME280;15053;48.618;10.024;2023-04-07T00:10:33;94272.66;;;6.51;67.08
27643;BME280;15053;48.618;10.024;2023-04-07T00:12:59;94264.41;;;6.39;68.15
27643;BME280;15053;48.618;10.024;2023-04-07T00:15:26;94278.13;;;6.50;68.95
27643;BME280;15053;48.618;10.024;2023-04-07T00:17:52;94275.00;;;6.43;69.26
27643;BME280;15053;48.618;10.024;2023-04-07T00:20:19;94279.66;;;6.46;69.00
27643;BME280;15053;48.618;10.024;2023-04-07T00:22:46;94277.59;;;6.48;70.36
27643;BME280;15053;48.618;10.024;2023-04-07T00:25:13;94278.63;;;6.47;70.11
27643;BME280;15053;48.618;10.024;2023-04-07T00:27:39;94272.16;;;6.49;70.34
27643;BME280;15053;48.618;10.024;2023-04-07T00:30:06;94272.94;;;6.50;70.80
27643;BME280;15053;48.618;10.024;2023-04-07T00:32:33;94268.00;;;6.48;71.41
27643;BME280;15053;48.618;10.024;2023-04-07T00:35:01;94265.69;;;6.47;70.92
27643;BME280;15053;48.618;10.024;2023-04-07T00:37:28;94258.97;;;6.41;71.83
27643;BME280;15053;48.618;10.024;2023-04-07T00:39:55;94255.59;;;6.35;72.38
27643;BME280;15053;48.618;10.024;2023-04-07T00:42:22;94257.41;;;6.35;73.10
27643;BME280;15053;48.618;10.024;2023-04-07T00:44:49;94252.25;;;6.35;73.01
27643;BME280;15053;48.618;10.024;2023-04-07T00:47:15;94253.81;;;6.36;72.60
27643;BME280;15053;48.618;10.024;2023-04-07T00:49:42;94246.84;;;6.31;73.15
27643;BME280;15053;48.618;10.024;2023-04-07T00:52:09;94247.09;;;6.30;74.45
27643;BME280;15053;48.618;10.024;2023-04-07T00:54:40;94235.69;;;6.21;74.25
27643;BME280;15053;48.618;10.024;2023-04-07T00:57:07;94229.00;;;6.15;74.66
27643;BME280;15053;48.618;10.024;2023-04-07T00:59:34;94231.31;;;6.11;74.51
27643;BME280;15053;48.618;10.024;2023-04-07T01:02:25;94224.63;;;6.15;75.35
27643;BME280;15053;48.618;10.024;2023-04-07T01:05:01;94227.44;;;6.09;75.86
27643;BME280;15053;48.618;10.024;2023-04-07T01:07:39;94221.22;;;6.05;75.72
27643;BME280;15053;48.618;10.024;2023-04-07T01:10:15;94222.00;;;6.05;76.39
27643;BME280;15053;48.618;10.024;2023-04-07T01:13:03;94210.88;;;6.05;76.77
27643;BME280;15053;48.618;10.024;2023-04-07T01:15:32;94216.56;;;6.02;77.19
27643;BME280;15053;48.618;10.024;2023-04-07T01:18:25;94209.38;;;5.99;77.57
27643;BME280;15053;48.618;10.024;2023-04-07T01:20:55;94204.19;;;5.93;77.63
27643;BME280;15053;48.618;10.024;2023-04-07T01:26:20;94206.25;;;6.02;79.09
27643;BME280;15053;48.618;10.024;2023-04-07T01:29:23;94194.88;;;6.08;79.83
27643;BME280;15053;48.618;10.024;2023-04-07T01:31:49;94200.03;;;6.13;79.81
27643;BME280;15053;48.618;10.024;2023-04-07T01:34:17;94194.88;;;6.18;79.62
27643;BME280;15053;48.618;10.024;2023-04-07T01:36:45;94194.34;;;6.21;78.89
27643;BME280;15053;48.618;10.024;2023-04-07T01:39:12;94193.03;;;6.18;79.47
27643;BME280;15053;48.618;10.024;2023-04-07T01:41:40;94191.00;;;6.15;79.67
27643;BME280;15053;48.618;10.024;2023-04-07T01:44:07;94187.09;;;6.13;79.85
27643;BME280;15053;48.618;10.024;2023-04-07T01:46:35;94191.75;;;6.11;79.70
27643;BME280;15053;48.618;10.024;2023-04-07T01:49:01;94186.59;;;6.11;79.55
27643;BME280;15053;48.618;10.024;2023-04-07T01:51:29;94174.19;;;6.08;80.28
27643;BME280;15053;48.618;10.024;2023-04-07T01:53:56;94179.63;;;6.11;80.32
27643;BME280;15053;48.618;10.024;2023-04-07T01:56:24;94183.50;;;6.14;80.35
27643;BME280;15053;48.618;10.024;2023-04-07T01:58:52;94171.84;;;6.16;81.07
27643;BME280;15053;48.618;10.024;2023-04-07T02:01:21;94169.56;;;6.10;80.33
27643;BME280;15053;48.618;10.024;2023-04-07T02:03:55;94170.06;;;6.12;81.11
27643;BME280;15053;48.618;10.024;2023-04-07T02:06:27;94166.19;;;6.09;81.19
27643;BME280;15053;48.618;10.024;2023-04-07T02:08:59;94161.25;;;6.08;81.20
27643;BME280;15053;48.618;10.024;2023-04-07T02:11:28;94162.84;;;6.04;80.98
27643;BME280;15053;48.618;10.024;2023-04-07T02:14:01;94153.78;;;6.01;80.57
27643;BME280;15053;48.618;10.024;2023-04-07T02:16:36;94161.00;;;5.99;81.53
27643;BME280;15053;48.618;10.024;2023-04-07T02:19:03;94145.50;;;5.94;81.39
27643;BME280;15053;48.618;10.024;2023-04-07T02:21:32;94160.25;;;5.93;82.18
27643;BME280;15053;48.618;10.024;2023-04-07T02:24:00;94153.53;;;5.92;82.27
27643;BME280;15053;48.618;10.024;2023-04-07T02:26:31;94158.19;;;5.90;81.87
27643;BME280;15053;48.618;10.024;2023-04-07T02:29:04;94149.91;;;5.88;82.65
27643;BME280;15053;48.618;10.024;2023-04-07T02:31:30;94139.06;;;5.91;82.78
27643;BME280;15053;48.618;10.024;2023-04-07T02:33:59;94134.66;;;5.92;82.73
27643;BME280;15053;48.618;10.024;2023-04-07T02:36:26;94139.81;;;5.97;83.68
27643;BME280;15053;48.618;10.024;2023-04-07T02:38:53;94137.22;;;6.02;83.71
27643;BME280;15053;48.618;10.024;2023-04-07T02:41:19;94128.97;;;6.00;82.70
27643;BME280;15053;48.618;10.024;2023-04-07T02:43:46;94135.94;;;6.05;82.88
27643;BME280;15053;48.618;10.024;2023-04-07T02:46:14;94137.50;;;6.01;82.92
27643;BME280;15053;48.618;10.024;2023-04-07T02:48:42;94138.53;;;5.94;82.63
27643;BME280;15053;48.618;10.024;2023-04-07T02:51:08;94131.31;;;5.91;83.47
27643;BME280;15053;48.618;10.024;2023-04-07T02:53:35;94139.06;;;5.91;83.99
27643;BME280;15053;48.618;10.024;2023-04-07T02:56:03;94126.91;;;5.92;83.58
27643;BME280;15053;48.618;10.024;2023-04-07T02:58:29;94132.34;;;5.96;84.21
27643;BME280;15053;48.618;10.024;2023-04-07T03:00:56;94121.50;;;5.99;84.16
27643;BME280;15053;48.618;10.024;2023-04-07T03:03:26;94124.59;;;6.01;84.57
27643;BME280;15053;48.618;10.024;2023-04-07T03:06:07;94113.44;;;6.05;85.02
27643;BME280;15053;48.618;10.024;2023-04-07T03:08:42;94119.41;;;6.06;85.12
27643;BME280;15053;48.618;10.024;2023-04-07T03:11:09;94113.97;;;6.07;84.41
27643;BME280;15053;48.618;10.024;2023-04-07T03:13:36;94111.63;;;6.11;84.48
27643;BME280;15053;48.618;10.024;2023-04-07T03:16:03;94108.53;;;6.14;85.29
27643;BME280;15053;48.618;10.024;2023-04-07T03:18:36;94100.78;;;6.14;85.41
27643;BME280;15053;48.618;10.024;2023-04-07T03:21:03;94098.47;;;6.12;85.23
27643;BME280;15053;48.618;10.024;2023-04-07T03:23:30;94102.59;;;6.08;84.84
27643;BME280;15053;48.618;10.024;2023-04-07T03:25:58;94092.25;;;6.08;84.75
27643;BME280;15053;48.618;10.024;2023-04-07T03:28:29;94097.69;;;6.07;85.58
27643;BME280;15053;48.618;10.024;2023-04-07T03:30:55;94096.66;;;6.03;85.08
27643;BME280;15053;48.618;10.024;2023-04-07T03:33:22;94094.84;;;6.03;85.07
27643;BME280;15053;48.618;10.024;2023-04-07T03:35:48;94090.47;;;6.04;85.56
27643;BME280;15053;48.618;10.024;2023-04-07T03:38:15;94093.81;;;6.04;85.32
27643;BME280;15053;48.618;10.024;2023-04-07T03:40:42;94089.41;;;6.05;85.44
27643;BME280;15053;48.618;10.024;2023-04-07T03:43:08;94089.94;;;6.07;86.04
27643;BME280;15053;48.618;10.024;2023-04-07T03:45:39;94084.25;;;6.10;85.28
27643;BME280;15053;48.618;10.024;2023-04-07T03:48:06;94083.47;;;6.09;86.39
27643;BME280;15053;48.618;10.024;2023-04-07T03:50:45;94083.47;;;6.09;85.47
27643;BME280;15053;48.618;10.024;2023-04-07T03:53:15;94082.16;;;6.12;85.59
27643;BME280;15053;48.618;10.024;2023-04-07T03:55:42;94077.00;;;6.12;85.32
27643;BME280;15053;48.618;10.024;2023-04-07T03:58:18;94081.38;;;6.11;85.60
27643;BME280;15053;48.618;10.024;2023-04-07T04:00:46;94073.63;;;6.11;85.29
27643;BME280;15053;48.618;10.024;2023-04-07T04:03:13;94076.47;;;6.15;86.44
27643;BME280;15053;48.618;10.024;2023-04-07T04:06:10;94075.94;;;6.18;86.12
27643;BME280;15053;48.618;10.024;2023-04-07T04:08:36;94074.91;;;6.19;85.34
27643;BME280;15053;48.618;10.024;2023-04-07T04:11:04;94071.81;;;6.17;85.20
27643;BME280;15053;48.618;10.024;2023-04-07T04:13:37;94069.22;;;6.17;84.99
27643;BME280;15053;48.618;10.024;2023-04-07T04:16:05;94066.91;;;6.15;85.61
27643;BME280;15053;48.618;10.024;2023-04-07T04:18:33;94068.19;;;6.18;86.17
27643;BME280;15053;48.618;10.024;2023-04-07T04:21:00;94067.13;;;6.19;85.75
27643;BME280;15053;48.618;10.024;2023-04-07T04:23:26;94069.47;;;6.20;85.91
27643;BME280;15053;48.618;10.024;2023-04-07T04:25:55;94062.75;;;6.19;85.61
27643;BME280;15053;48.618;10.024;2023-04-07T04:28:22;94068.44;;;6.16;85.09
27643;BME280;15053;48.618;10.024;2023-04-07T04:30:48;94069.75;;;6.14;85.79
27643;BME280;15053;48.618;10.024;2023-04-07T04:33:16;94072.34;;;6.14;86.07
27643;BME280;15053;48.618;10.024;2023-04-07T04:35:50;94074.91;;;6.14;86.11
27643;BME280;15053;48.618;10.024;2023-04-07T04:38:18;94064.56;;;6.14;86.92
27643;BME280;15053;48.618;10.024;2023-04-07T04:40:52;94071.03;;;6.11;85.84
27643;BME280;15053;48.618;10.024;2023-04-07T04:43:24;94067.19;;;6.09;86.26
27643;BME280;15053;48.618;10.024;2023-04-07T04:45:50;94062.78;;;6.09;86.69
27643;BME280;15053;48.618;10.024;2023-04-07T04:48:21;94070.28;;;6.11;87.24
27643;BME280;15053;48.618;10.024;2023-04-07T04:50:48;94065.63;;;6.08;87.22
27643;BME280;15053;48.618;10.024;2023-04-07T04:53:14;94072.88;;;6.06;86.83
27643;BME280;15053;48.618;10.024;2023-04-07T04:55:57;94070.78;;;6.08;87.52
27643;BME280;15053;48.618;10.024;2023-04-07T04:58:34;94068.22;;;6.08;87.03
27643;BME280;15053;48.618;10.024;2023-04-07T05:01:01;94070.53;;;6.09;87.42
27643;BME280;15053;48.618;10.024;2023-04-07T05:03:41;94066.66;;;6.12;87.47
27643;BME280;15053;48.618;10.024;2023-04-07T05:06:16;94068.75;;;6.10;87.53
27643;BME280;15053;48.618;10.024;2023-04-07T05:08:46;94077.53;;;6.09;87.75
27643;BME280;15053;48.618;10.024;2023-04-07T05:11:15;94062.81;;;6.04;86.88
27643;BME280;15053;48.618;10.024;2023-04-07T05:13:44;94061.75;;;6.05;86.96
27643;BME280;15053;48.618;10.024;2023-04-07T05:16:10;94066.41;;;6.08;87.03
27643;BME280;15053;48.618;10.024;2023-04-07T05:18:37;94063.31;;;6.06;86.98
27643;BME280;15053;48.618;10.024;2023-04-07T05:21:04;94063.84;;;6.03;86.71
27643;BME280;15053;48.618;10.024;2023-04-07T05:23:34;94063.56;;;6.00;86.91
27643;BME280;15053;48.618;10.024;2023-04-07T05:26:02;94061.28;;;5.98;86.59
27643;BME280;15053;48.618;10.024;2023-04-07T05:28:29;94070.81;;;5.98;87.54
27643;BME280;15053;48.618;10.024;2023-04-07T05:31:00;94068.75;;;6.00;87.11
27643;BME280;15053;48.618;10.024;2023-04-07T05:33:29;94058.66;;;6.03;87.92
27643;BME280;15053;48.618;10.024;2023-04-07T05:35:56;94063.31;;;6.06;88.60
27643;BME280;15053;48.618;10.024;2023-04-07T05:38:23;94067.19;;;6.09;87.96
27643;BME280;15053;48.618;10.024;2023-04-07T05:40:53;94066.38;;;6.13;87.98
27643;BME280;15053;48.618;10.024;2023-04-07T05:43:24;94067.66;;;6.16;88.89
27643;BME280;15053;48.618;10.024;2023-04-07T05:45:50;94065.06;;;6.16;88.60
27643;BME280;15053;48.618;10.024;2023-04-07T05:48:17;94059.38;;;6.19;87.75
27643;BME280;15053;48.618;10.024;2023-04-07T05:50:45;94065.84;;;6.21;87.84
27643;BME280;15053;48.618;10.024;2023-04-07T05:53:15;94058.09;;;6.21;88.13
27643;BME280;15053;48.618;10.024;2023-04-07T05:55:42;94055.28;;;6.18;87.52
27643;BME280;15053;48.618;10.024;2023-04-07T05:58:12;94061.72;;;6.20;87.84
27643;BME280;15053;48.618;10.024;2023-04-07T06:00:43;94057.31;;;6.21;88.00
27643;BME280;15053;48.618;10.024;2023-04-07T06:03:13;94064.53;;;6.24;87.52
27643;BME280;15053;48.618;10.024;2023-04-07T06:05:52;94070.75;;;6.28;88.25
27643;BME280;15053;48.618;10.024;2023-04-07T06:08:20;94065.56;;;6.28;87.80
27643;BME280;15053;48.618;10.024;2023-04-07T06:10:47;94063.50;;;6.25;87.89
27643;BME280;15053;48.618;10.024;2023-04-07T06:13:13;94060.41;;;6.28;88.07
27643;BME280;15053;48.618;10.024;2023-04-07T06:15:41;94054.44;;;6.27;87.61
27643;BME280;15053;48.618;10.024;2023-04-07T06:18:08;94044.38;;;6.26;88.49
27643;BME280;15053;48.618;10.024;2023-04-07T06:20:35;94049.03;;;6.24;88.13
27643;BME280;15053;48.618;10.024;2023-04-07T06:23:01;94046.97;;;6.21;88.36
27643;BME280;15053;48.618;10.024;2023-04-07T06:25:28;94048.03;;;6.15;88.10
27643;BME280;15053;48.618;10.024;2023-04-07T06:27:54;94054.75;;;6.16;88.38
27643;BME280;15053;48.618;10.024;2023-04-07T06:30:21;94058.34;;;6.20;88.15
27643;BME280;15053;48.618;10.024;2023-04-07T06:32:48;94049.03;;;6.24;88.47
27643;BME280;15053;48.618;10.024;2023-04-07T06:35:14;94059.38;;;6.29;87.79
27643;BME280;15053;48.618;10.024;2023-04-07T06:37:41;94065.03;;;6.31;88.38
27643;BME280;15053;48.618;10.024;2023-04-07T06:40:08;94054.94;;;6.29;88.11
27643;BME280;15053;48.618;10.024;2023-04-07T06:42:34;94065.28;;;6.29;87.57
27643;BME280;15053;48.618;10.024;2023-04-07T06:45:17;94064.00;;;6.27;87.74
27643;BME280;15053;48.618;10.024;2023-04-07T06:47:43;94056.03;;;6.23;87.51
27643;BME280;15053;48.618;10.024;2023-04-07T06:50:10;94062.97;;;6.33;87.79
27643;BME280;15053;48.618;10.024;2023-04-07T06:52:36;94054.94;;;6.39;88.60
27643;BME280;15053;48.618;10.024;2023-04-07T06:55:03;94048.41;;;6.47;88.14
27643;BME280;15053;48.618;10.024;2023-04-07T06:57:30;94047.38;;;6.53;88.34
27643;BME280;15053;48.618;10.024;2023-04-07T06:59:56;94053.78;;;6.61;87.85
27643;BME280;15053;48.618;10.024;2023-04-07T07:02:23;94054.03;;;6.64;88.02
27643;BME280;15053;48.618;10.024;2023-04-07T07:04:50;94049.84;;;6.68;88.29
27643;BME280;15053;48.618;10.024;2023-04-07T07:07:16;94057.13;;;6.66;88.14
27643;BME280;15053;48.618;10.024;2023-04-07T07:09:42;94049.31;;;6.71;88.26
27643;BME280;15053;48.618;10.024;2023-04-07T07:12:09;94058.63;;;6.77;88.83
27643;BME280;15053;48.618;10.024;2023-04-07T07:14:35;94058.34;;;6.79;87.93
27643;BME280;15053;48.618;10.024;2023-04-07T07:17:02;94053.91;;;6.84;88.42
27643;BME280;15053;48.618;10.024;2023-04-07T07:19:28;94058.28;;;6.89;88.00
27643;BME280;15053;48.618;10.024;2023-04-07T07:21:55;94055.38;;;6.95;88.71
27643;BME280;15053;48.618;10.024;2023-04-07T07:24:21;94059.00;;;6.99;88.33
27643;BME280;15053;48.618;10.024;2023-04-07T07:26:48;94059.41;;;7.11;88.03
27643;BME280;15053;48.618;10.024;2023-04-07T07:29:14;94061.91;;;7.27;88.09
27643;BME280;15053;48.618;10.024;2023-04-07T07:31:41;94059.25;;;7.37;88.30
27643;BME280;15053;48.618;10.024;2023-04-07T07:34:07;94056.59;;;7.47;88.11
27643;BME280;15053;48.618;10.024;2023-04-07T07:36:34;94044.91;;;7.49;87.95
27643;BME280;15053;48.618;10.024;2023-04-07T07:39:00;94028.63;;;7.44;87.72
27643;BME280;15053;48.618;10.024;2023-04-07T07:41:27;94048.38;;;7.68;87.59
27643;BME280;15053;48.618;10.024;2023-04-07T07:43:53;94053.69;;;7.82;86.61
27643;BME280;15053;48.618;10.024;2023-04-07T07:46:20;94057.97;;;7.92;86.67
27643;BME280;15053;48.618;10.024;2023-04-07T07:48:46;94054.72;;;8.05;86.14
27643;BME280;15053;48.618;10.024;2023-04-07T07:51:13;94065.06;;;8.10;86.38
27643;BME280;15053;48.618;10.024;2023-04-07T07:53:39;94062.75;;;8.08;85.48
27643;BME280;15053;48.618;10.024;2023-04-07T07:56:05;94063.84;;;8.02;84.14
27643;BME280;15053;48.618;10.024;2023-04-07T07:58:32;94065.69;;;7.97;84.69
27643;BME280;15053;48.618;10.024;2023-04-07T08:00:58;94061.28;;;7.97;84.19
27643;BME280;15053;48.618;10.024;2023-04-07T08:03:25;94058.72;;;7.97;83.79
27643;BME280;15053;48.618;10.024;2023-04-07T08:05:51;94063.13;;;7.97;84.00
27643;BME280;15053;48.618;10.024;2023-04-07T08:08:18;94061.81;;;7.99;84.13
27643;BME280;15053;48.618;10.024;2023-04-07T08:10:44;94059.13;;;8.09;84.39
27643;BME280;15053;48.618;10.024;2023-04-07T08:13:11;94065.28;;;8.13;84.18
27643;BME280;15053;48.618;10.024;2023-04-07T08:15:38;94055.69;;;8.14;84.34
27643;BME280;15053;48.618;10.024;2023-04-07T08:18:05;94061.59;;;8.19;84.25
27643;BME280;15053;48.618;10.024;2023-04-07T08:20:32;94059.44;;;8.26;84.59
27643;BME280;15053;48.618;10.024;2023-04-07T08:22:59;94067.63;;;8.39;84.22
27643;BME280;15053;48.618;10.024;2023-04-07T08:25:27;94069.22;;;8.58;84.34
27643;BME280;15053;48.618;10.024;2023-04-07T08:27:54;94063.63;;;8.70;83.31
27643;BME280;15053;48.618;10.024;2023-04-07T08:30:21;94073.09;;;8.79;83.71
27643;BME280;15053;48.618;10.024;2023-04-07T08:32:48;94063.78;;;8.78;83.58
27643;BME280;15053;48.618;10.024;2023-04-07T08:35:14;94072.91;;;8.76;83.88
27643;BME280;15053;48.618;10.024;2023-04-07T08:37:40;94072.13;;;8.75;83.63
27643;BME280;15053;48.618;10.024;2023-04-07T08:40:09;94077.31;;;8.75;83.27
27643;BME280;15053;48.618;10.024;2023-04-07T08:42:40;94075.22;;;8.77;83.28
27643;BME280;15053;48.618;10.024;2023-04-07T08:45:07;94080.69;;;8.76;83.04
27643;BME280;15053;48.618;10.024;2023-04-07T08:47:35;94083.41;;;8.84;83.31
27643;BME280;15053;48.618;10.024;2023-04-07T08:50:05;94074.16;;;8.97;83.13
27643;BME280;15053;48.618;10.024;2023-04-07T08:53:04;94080.28;;;9.06;82.96
27643;BME280;15053;48.618;10.024;2023-04-07T08:55:34;94076.69;;;9.21;82.25
27643;BME280;15053;48.618;10.024;2023-04-07T08:58:02;94080.69;;;9.32;82.47
27643;BME280;15053;48.618;10.024;2023-04-07T09:00:29;94085.63;;;9.33;82.11
27643;BME280;15053;48.618;10.024;2023-04-07T09:02:58;94080.97;;;9.30;81.78
27643;BME280;15053;48.618;10.024;2023-04-07T09:05:26;94079.16;;;9.31;80.89
27643;BME280;15053;48.618;10.024;2023-04-07T09:07:52;94080.91;;;9.35;80.11
27643;BME280;15053;48.618;10.024;2023-04-07T09:10:18;94080.03;;;9.40;79.19
27643;BME280;15053;48.618;10.024;2023-04-07T09:12:45;94089.31;;;9.46;78.02
27643;BME280;15053;48.618;10.024;2023-04-07T09:15:12;94079.69;;;9.46;77.62
27643;BME280;15053;48.618;10.024;2023-04-07T09:17:39;94078.81;;;9.51;76.74
27643;BME280;15053;48.618;10.024;2023-04-07T09:20:06;94077.06;;;9.65;75.98
27643;BME280;15053;48.618;10.024;2023-04-07T09:22:43;94074.31;;;9.89;75.54
27643;BME280;15053;48.618;10.024;2023-04-07T09:27:56;94062.91;;;10.44;74.00
27643;BME280;15053;48.618;10.024;2023-04-07T09:30:23;94058.47;;;10.58;73.92
27643;BME280;15053;48.618;10.024;2023-04-07T09:32:50;94063.56;;;10.63;74.21
27643;BME280;15053;48.618;10.024;2023-04-07T09:35:17;94060.97;;;10.63;74.06
27643;BME280;15053;48.618;10.024;2023-04-07T09:38:00;94068.88;;;10.72;74.13
27643;BME280;15053;48.618;10.024;2023-04-07T09:40:26;94066.84;;;10.69;73.81
27643;BME280;15053;48.618;10.024;2023-04-07T09:42:53;94071.97;;;10.74;72.67
27643;BME280;15053;48.618;10.024;2023-04-07T09:45:30;94076.69;;;10.86;71.48
27643;BME280;15053;48.618;10.024;2023-04-07T09:48:17;94068.91;;;11.08;71.35
27643;BME280;15053;48.618;10.024;2023-04-07T09:50:44;94069.19;;;11.42;71.53
27643;BME280;15053;48.618;10.024;2023-04-07T09:53:15;94070.03;;;11.73;71.25
27643;BME280;15053;48.618;10.024;2023-04-07T09:55:42;94074.66;;;11.76;69.75
27643;BME280;15053;48.618;10.024;2023-04-07T09:58:11;94063.97;;;11.64;68.79
27643;BME280;15053;48.618;10.024;2023-04-07T10:00:40;94068.38;;;11.55;69.16
27643;BME280;15053;48.618;10.024;2023-04-07T10:03:07;94064.31;;;11.49;69.60
27643;BME280;15053;48.618;10.024;2023-04-07T10:05:34;94072.66;;;11.38;69.56
27643;BME280;15053;48.618;10.024;2023-04-07T10:08:02;94069.06;;;11.25;69.54
27643;BME280;15053;48.618;10.024;2023-04-07T10:10:29;94071.91;;;11.15;68.91
27643;BME280;15053;48.618;10.024;2023-04-07T10:12:57;94073.47;;;11.02;69.26
27643;BME280;15053;48.618;10.024;2023-04-07T10:15:24;94068.66;;;10.96;70.31
27643;BME280;15053;48.618;10.024;2023-04-07T10:17:52;94073.38;;;10.94;70.41
27643;BME280;15053;48.618;10.024;2023-04-07T10:20:19;94074.47;;;10.93;70.20
27643;BME280;15053;48.618;10.024;2023-04-07T10:22:48;94075.78;;;11.04;70.89
27643;BME280;15053;48.618;10.024;2023-04-07T10:25:18;94073.53;;;11.11;70.57
27643;BME280;15053;48.618;10.024;2023-04-07T10:27:59;94077.16;;;11.23;70.48
27643;BME280;15053;48.618;10.024;2023-04-07T10:30:30;94078.31;;;11.31;69.93
27643;BME280;15053;48.618;10.024;2023-04-07T10:32:57;94075.59;;;11.36;69.67
27643;BME280;15053;48.618;10.024;2023-04-07T10:35:24;94078.47;;;11.35;68.78
27643;BME280;15053;48.618;10.024;2023-04-07T10:40:34;94085.72;;;11.38;68.09
27643;BME280;15053;48.618;10.024;2023-04-07T10:43:02;94073.44;;;11.38;67.74
27643;BME280;15053;48.618;10.024;2023-04-07T10:48:21;94072.16;;;11.49;67.60
27643;BME280;15053;48.618;10.024;2023-04-07T10:51:11;94077.63;;;11.61;67.46
27643;BME280;15053;48.618;10.024;2023-04-07T10:59:31;94088.28;;;11.73;66.00
27643;BME280;15053;48.618;10.024;2023-04-07T11:04:42;94082.34;;;11.81;65.89
27643;BME280;15053;48.618;10.024;2023-04-07T11:07:11;94081.00;;;11.84;65.84
27643;BME280;15053;48.618;10.024;2023-04-07T11:09:39;94075.97;;;11.88;65.44
27643;BME280;15053;48.618;10.024;2023-04-07T11:12:07;94077.50;;;11.89;65.12
27643;BME280;15053;48.618;10.024;2023-04-07T11:14:33;94071.31;;;12.07;65.35
27643;BME280;15053;48.618;10.024;2023-04-07T11:17:02;94072.19;;;12.33;64.57
27643;BME280;15053;48.618;10.024;2023-04-07T11:19:29;94068.44;;;12.56;64.14
27643;BME280;15053;48.618;10.024;2023-04-07T11:22:14;94071.25;;;12.77;63.54
27643;BME280;15053;48.618;10.024;2023-04-07T11:24:55;94065.75;;;12.87;63.21
27643;BME280;15053;48.618;10.024;2023-04-07T11:27:22;94073.72;;;12.82;62.67
27643;BME280;15053;48.618;10.024;2023-04-07T11:29:48;94068.78;;;12.63;62.73
27643;BME280;15053;48.618;10.024;2023-04-07T11:32:21;94075.28;;;12.35;62.61
27643;BME280;15053;48.618;10.024;2023-04-07T11:34:51;94076.84;;;12.05;63.36
27643;BME280;15053;48.618;10.024;2023-04-07T11:37:22;94082.28;;;11.95;63.86
27643;BME280;15053;48.618;10.024;2023-04-07T11:39:57;94084.97;;;11.81;63.74
27643;BME280;15053;48.618;10.024;2023-04-07T11:42:33;94081.63;;;11.81;64.28
27643;BME280;15053;48.618;10.024;2023-04-07T11:45:00;94076.41;;;11.90;64.41
27643;BME280;15053;48.618;10.024;2023-04-07T11:47:38;94082.34;;;12.04;64.82
27643;BME280;15053;48.618;10.024;2023-04-07T11:50:06;94078.41;;;12.15;64.48
27643;BME280;15053;48.618;10.024;2023-04-07T11:52:46;94072.44;;;12.23;63.85
27643;BME280;15053;48.618;10.024;2023-04-07T11:55:20;94076.78;;;12.27;63.54
27643;BME280;15053;48.618;10.024;2023-04-07T11:57:47;94080.59;;;12.21;63.15
27643;BME280;15053;48.618;10.024;2023-04-07T12:00:16;94075.50;;;12.16;62.50
27643;BME280;15053;48.618;10.024;2023-04-07T12:02:43;94084.72;;;12.22;62.32
27643;BME280;15053;48.618;10.024;2023-04-07T12:05:10;94082.00;;;12.27;61.47
27643;BME280;15053;48.618;10.024;2023-04-07T12:07:37;94082.94;;;12.31;61.11
27643;BME280;15053;48.618;10.024;2023-04-07T12:10:20;94078.22;;;12.42;60.95
27643;BME280;15053;48.618;10.024;2023-04-07T12:12:47;94076.88;;;12.53;60.02
27643;BME280;15053;48.618;10.024;2023-04-07T12:15:14;94076.44;;;12.60;59.82
27643;BME280;15053;48.618;10.024;2023-04-07T12:17:47;94073.84;;;12.68;59.63
27643;BME280;15053;48.618;10.024;2023-04-07T12:20:15;94081.22;;;12.75;59.16
27643;BME280;15053;48.618;10.024;2023-04-07T12:22:41;94081.41;;;12.78;59.19
27643;BME280;15053;48.618;10.024;2023-04-07T12:25:08;94084.16;;;12.73;58.82
27643;BME280;15053;48.618;10.024;2023-04-07T12:27:34;94081.38;;;12.70;58.10
27643;BME280;15053;48.618;10.024;2023-04-07T12:30:08;94087.81;;;12.64;58.35
27643;BME280;15053;48.618;10.024;2023-04-07T12:32:35;94084.31;;;12.68;58.44
27643;BME280;15053;48.618;10.024;2023-04-07T12:35:03;94083.97;;;12.70;58.17
27643;BME280;15053;48.618;10.024;2023-04-07T12:37:30;94081.38;;;12.70;57.85
27643;BME280;15053;48.618;10.024;2023-04-07T12:39:58;94081.22;;;12.75;58.03
27643;BME280;15053;48.618;10.024;2023-04-07T12:42:25;94075.88;;;12.80;57.31
27643;BME280;15053;48.618;10.024;2023-04-07T12:44:52;94077.56;;;12.76;56.51
27643;BME280;15053;48.618;10.024;2023-04-07T12:47:19;94077.69;;;12.71;57.06
27643;BME280;15053;48.618;10.024;2023-04-07T12:49:46;94070.16;;;12.78;57.00
27643;BME280;15053;48.618;10.024;2023-04-07T12:52:15;94071.56;;;12.84;56.98
27643;BME280;15053;48.618;10.024;2023-04-07T12:54:42;94074.00;;;12.80;56.55
27643;BME280;15053;48.618;10.024;2023-04-07T12:57:09;94071.41;;;12.89;56.87
27643;BME280;15053;48.618;10.024;2023-04-07T12:59:36;94064.38;;;13.07;57.18
27643;BME280;15053;48.618;10.024;2023-04-07T13:02:02;94069.78;;;13.19;57.20
27643;BME280;15053;48.618;10.024;2023-04-07T13:04:29;94070.56;;;13.28;56.54
27643;BME280;15053;48.618;10.024;2023-04-07T13:06:56;94070.91;;;13.35;56.18
27643;BME280;15053;48.618;10.024;2023-04-07T13:09:23;94062.13;;;13.48;56.77
27643;BME280;15053;48.618;10.024;2023-04-07T13:11:50;94070.72;;;13.57;56.08
27643;BME280;15053;48.618;10.024;2023-04-07T13:14:16;94074.28;;;13.44;55.82
27643;BME280;15053;48.618;10.024;2023-04-07T13:16:43;94075.38;;;13.43;56.07
27643;BME280;15053;48.618;10.024;2023-04-07T13:19:10;94066.91;;;13.37;56.31
27643;BME280;15053;48.618;10.024;2023-04-07T13:21:36;94067.81;;;13.33;56.76
27643;BME280;15053;48.618;10.024;2023-04-07T13:24:05;94067.19;;;13.27;57.23
27643;BME280;15053;48.618;10.024;2023-04-07T13:26:33;94066.91;;;13.29;57.31